Time;durP1;ratioP1;P1;durP2;ratioP2;P2;SDS_P1;SDS_P2;PMS_P1;PMS_P2;Temp;Humidity;BMP_temperature;BMP_pressure;BME280_temperature;BME280_humidity;BME280_pressure;Samples;Min_cycle;Max_cycle;Signal;HPM_P1;HPM_P2
2022/01/17 00:00:53;;;;;;;13.13;7.80;;;5.90;99.90;;;;;;4996612;28;20235;-85
2022/01/17 00:06:49;;;;;;;13.48;7.20;;;5.90;99.90;;;;;;4994545;28;20187;-85
2022/01/17 00:35:32;;;;;;;11.82;7.40;;;6.30;99.90;;;;;;4851565;29;20217;-85
2022/01/17 01:41:08;;;;;;;16.63;9.98;;;5.70;99.90;;;;;;5017655;23;20241;-86
2022/01/17 01:43:36;;;;;;;15.07;10.02;;;5.60;99.90;;;;;;4981594;28;20665;-87
2022/01/17 01:46:10;;;;;;;14.30;9.77;;;5.40;99.90;;;;;;4990708;28;20310;-85
2022/01/17 01:48:37;;;;;;;13.75;9.05;;;5.40;99.90;;;;;;4992066;28;20210;-88
2022/01/17 01:51:04;;;;;;;15.82;9.63;;;5.80;99.90;;;;;;4982219;28;20647;-88
2022/01/17 01:53:31;;;;;;;11.98;8.10;;;5.90;99.90;;;;;;4980521;28;20237;-88
2022/01/17 01:55:59;;;;;;;12.98;8.27;;;6.30;99.90;;;;;;4981718;28;20548;-87
2022/01/17 01:58:28;;;;;;;14.30;8.48;;;5.90;99.90;;;;;;4986634;28;20249;-88
2022/01/17 02:00:56;;;;;;;14.88;8.93;;;5.60;99.90;;;;;;4996352;28;20238;-86
2022/01/17 02:03:23;;;;;;;14.50;7.80;;;6.00;99.90;;;;;;4992327;28;20237;-88
2022/01/17 02:05:50;;;;;;;15.95;8.57;;;5.90;99.90;;;;;;4991564;28;20258;-88
2022/01/17 02:08:17;;;;;;;14.30;9.80;;;5.80;99.90;;;;;;4994896;28;20202;-88
2022/01/17 02:10:44;;;;;;;13.10;8.38;;;5.70;99.90;;;;;;4984385;28;20318;-87
2022/01/17 02:13:14;;;;;;;13.52;8.07;;;5.80;99.90;;;;;;4983185;28;20284;-87
2022/01/17 02:15:43;;;;;;;13.45;9.02;;;5.90;99.90;;;;;;4982564;28;20210;-86
2022/01/17 02:18:12;;;;;;;13.95;9.05;;;5.60;99.90;;;;;;4982584;28;20235;-87
2022/01/17 02:20:43;;;;;;;16.55;8.13;;;5.90;99.90;;;;;;4982531;28;20294;-87
2022/01/17 02:23:11;;;;;;;15.57;9.75;;;6.00;99.90;;;;;;4982502;28;20202;-86
2022/01/17 02:25:38;;;;;;;12.50;8.52;;;5.80;99.90;;;;;;4982974;28;20343;-86
2022/01/17 02:28:05;;;;;;;13.95;9.40;;;5.80;99.90;;;;;;4987570;28;20211;-87
2022/01/17 02:30:33;;;;;;;17.58;9.27;;;5.80;99.90;;;;;;4984653;28;20318;-87
2022/01/17 02:33:05;;;;;;;13.50;8.30;;;5.70;99.90;;;;;;4984871;28;20211;-86
2022/01/17 02:35:33;;;;;;;14.50;9.13;;;5.70;99.90;;;;;;4984792;28;20287;-87
2022/01/17 02:38:01;;;;;;;12.32;8.05;;;5.60;99.90;;;;;;4994345;28;20263;-85
2022/01/17 02:40:28;;;;;;;13.30;9.13;;;5.80;99.90;;;;;;4993682;28;20245;-86
2022/01/17 02:43:03;;;;;;;14.88;7.93;;;5.50;99.90;;;;;;4990531;28;20204;-86
2022/01/17 02:45:33;;;;;;;14.80;8.38;;;6.30;99.90;;;;;;4985324;28;20191;-88
2022/01/17 02:48:03;;;;;;;12.15;7.82;;;6.20;99.90;;;;;;4983813;28;20210;-87
2022/01/17 02:50:30;;;;;;;17.35;8.30;;;5.80;99.90;;;;;;4983024;28;20737;-87
2022/01/17 02:53:04;;;;;;;14.60;8.07;;;6.40;99.90;;;;;;4984259;28;20249;-87
2022/01/17 02:55:31;;;;;;;13.70;8.30;;;5.80;99.90;;;;;;4985255;28;20210;-88
2022/01/17 02:57:59;;;;;;;13.25;8.15;;;6.20;99.90;;;;;;4992816;28;20218;-85
2022/01/17 03:00:26;;;;;;;13.23;8.10;;;6.20;99.90;;;;;;4994342;28;20226;-88
2022/01/17 03:02:53;;;;;;;14.38;7.57;;;5.80;99.90;;;;;;4989957;28;20306;-88
2022/01/17 03:05:21;;;;;;;12.15;7.55;;;6.20;99.90;;;;;;4987742;28;20220;-88
2022/01/17 03:07:49;;;;;;;11.05;7.55;;;6.00;99.90;;;;;;4984811;28;20218;-87
2022/01/17 03:10:19;;;;;;;13.32;9.43;;;5.40;99.90;;;;;;4983801;28;20252;-86
2022/01/17 03:12:46;;;;;;;16.40;9.13;;;6.00;99.90;;;;;;4984404;28;20663;-87
2022/01/17 03:15:13;;;;;;;12.65;8.73;;;5.80;99.90;;;;;;4994868;28;20218;-85
2022/01/17 03:17:40;;;;;;;13.95;9.77;;;5.80;99.90;;;;;;4995361;28;20211;-87
2022/01/17 03:20:08;;;;;;;11.50;7.70;;;5.50;99.90;;;;;;4991573;28;20335;-88
2022/01/17 03:22:35;;;;;;;13.38;9.05;;;5.80;99.90;;;;;;4988366;28;20210;-87
2022/01/17 03:25:02;;;;;;;11.88;8.30;;;6.10;99.90;;;;;;4985085;28;20680;-87
2022/01/17 03:27:31;;;;;;;13.57;9.18;;;5.80;99.90;;;;;;4987331;28;20665;-87
2022/01/17 03:29:57;;;;;;;16.05;9.77;;;5.20;99.90;;;;;;4992052;28;20230;-87
2022/01/17 03:32:24;;;;;;;11.10;8.07;;;5.90;99.90;;;;;;4990804;28;20306;-86
2022/01/17 03:34:51;;;;;;;14.05;9.18;;;5.90;99.90;;;;;;4987684;28;20203;-87
2022/01/17 03:37:18;;;;;;;13.88;8.85;;;5.80;99.90;;;;;;4984493;28;20338;-88
2022/01/17 03:39:45;;;;;;;11.90;8.10;;;5.40;99.90;;;;;;4983208;28;20254;-87
2022/01/17 03:42:12;;;;;;;13.00;8.95;;;5.90;99.90;;;;;;4988995;28;20215;-88
2022/01/17 03:44:40;;;;;;;15.25;8.95;;;5.70;99.90;;;;;;4984639;28;20738;-88
2022/01/17 03:47:07;;;;;;;13.50;8.45;;;5.50;99.90;;;;;;4984097;28;20226;-87
2022/01/17 03:49:34;;;;;;;11.32;8.30;;;5.70;99.90;;;;;;4984184;28;20315;-88
2022/01/17 03:52:01;;;;;;;13.07;8.48;;;6.10;99.90;;;;;;4982984;28;20221;-88
2022/01/17 03:54:28;;;;;;;13.85;8.77;;;6.20;99.90;;;;;;4983169;28;20261;-87
2022/01/17 03:56:55;;;;;;;12.68;9.48;;;5.70;99.90;;;;;;4985504;28;20240;-87
2022/01/17 03:59:21;;;;;;;13.30;8.70;;;6.00;99.90;;;;;;4984118;28;20265;-87
2022/01/17 04:01:50;;;;;;;13.85;9.23;;;5.80;99.90;;;;;;4983195;28;20292;-87
2022/01/17 04:04:17;;;;;;;14.50;9.60;;;5.70;99.90;;;;;;4991645;28;20209;-87
2022/01/17 04:06:44;;;;;;;12.32;8.82;;;5.70;99.90;;;;;;4992873;28;20205;-85
2022/01/17 04:09:11;;;;;;;17.45;10.00;;;5.50;99.90;;;;;;4999418;28;20237;-87
2022/01/17 04:11:38;;;;;;;16.63;10.10;;;5.70;99.90;;;;;;4993014;28;20253;-87
2022/01/17 04:14:06;;;;;;;14.13;9.65;;;5.60;99.90;;;;;;4983414;28;20313;-87
2022/01/17 04:16:34;;;;;;;13.75;9.30;;;5.50;99.90;;;;;;4995249;28;20229;-87
2022/01/17 04:19:02;;;;;;;17.05;10.93;;;5.60;99.90;;;;;;4997924;28;20275;-86
2022/01/17 04:21:34;;;;;;;15.07;9.50;;;5.40;99.90;;;;;;4993315;28;20248;-86
2022/01/17 04:24:01;;;;;;;19.20;9.77;;;6.00;99.90;;;;;;4983996;28;20234;-86
2022/01/17 04:26:28;;;;;;;13.77;8.85;;;5.80;99.90;;;;;;4982560;28;20245;-87
2022/01/17 04:28:55;;;;;;;14.57;9.13;;;6.00;99.90;;;;;;4984664;28;20240;-85
2022/01/17 04:31:22;;;;;;;13.25;9.52;;;6.10;99.90;;;;;;4995533;28;20211;-85
2022/01/17 04:33:50;;;;;;;13.40;8.90;;;6.10;99.90;;;;;;4995281;28;20198;-87
2022/01/17 04:36:18;;;;;;;15.10;9.35;;;6.00;99.90;;;;;;4982861;28;20207;-86
2022/01/17 04:38:45;;;;;;;14.20;10.40;;;5.80;99.90;;;;;;4981663;28;20275;-87
2022/01/17 04:41:15;;;;;;;12.57;8.75;;;5.80;99.90;;;;;;4981471;28;20310;-87
2022/01/17 04:43:57;;;;;;;14.57;9.98;;;5.80;99.90;;;;;;4994272;28;20253;-86
2022/01/17 04:46:24;;;;;;;14.15;8.93;;;5.20;99.90;;;;;;4982542;28;20191;-86
2022/01/17 04:48:51;;;;;;;16.00;10.43;;;5.70;99.90;;;;;;4987346;28;20242;-85
2022/01/17 04:51:19;;;;;;;12.02;8.20;;;5.60;99.90;;;;;;4998617;28;20219;-86
2022/01/17 04:54:02;;;;;;;13.23;8.15;;;5.90;99.90;;;;;;4994409;28;20300;-85
2022/01/17 04:56:29;;;;;;;11.80;7.38;;;6.10;99.90;;;;;;4994943;28;20180;-87
2022/01/17 04:58:56;;;;;;;14.38;9.57;;;6.00;99.90;;;;;;4996706;28;20256;-87
2022/01/17 05:01:23;;;;;;;12.05;7.32;;;5.50;99.90;;;;;;4987173;28;20224;-87
2022/01/17 05:03:50;;;;;;;13.80;8.50;;;5.50;99.90;;;;;;4983655;28;20244;-87
2022/01/17 05:06:16;;;;;;;15.07;8.90;;;5.30;99.90;;;;;;4982820;28;20296;-87
2022/01/17 05:08:45;;;;;;;11.10;8.02;;;5.80;99.90;;;;;;4983338;28;20239;-87
2022/01/17 05:11:12;;;;;;;14.15;8.50;;;5.50;99.90;;;;;;4982058;28;20316;-86
2022/01/17 05:13:46;;;;;;;14.13;8.32;;;5.30;99.90;;;;;;4981005;28;20317;-85
2022/01/17 05:16:14;;;;;;;12.32;8.15;;;5.90;99.90;;;;;;4981264;28;20261;-87
2022/01/17 05:21:26;;;;;;;12.77;8.20;;;5.40;99.90;;;;;;4984535;28;20251;-87
2022/01/17 05:23:54;;;;;;;15.55;8.77;;;5.70;99.90;;;;;;4982527;28;20242;-86
2022/01/17 05:26:21;;;;;;;11.60;7.30;;;5.60;99.90;;;;;;4981574;28;20215;-87
2022/01/17 05:28:48;;;;;;;11.63;8.25;;;5.90;99.90;;;;;;4981331;28;20226;-87
2022/01/17 05:31:16;;;;;;;12.98;8.45;;;5.70;99.90;;;;;;4985531;28;20275;-87
2022/01/17 05:33:42;;;;;;;10.45;7.15;;;5.80;99.90;;;;;;4984571;28;20211;-86
2022/01/17 05:36:09;;;;;;;15.40;7.55;;;5.80;99.90;;;;;;4982372;28;20270;-87
2022/01/17 05:38:36;;;;;;;12.70;7.72;;;5.70;99.90;;;;;;4981549;28;20199;-85
2022/01/17 05:41:04;;;;;;;13.57;7.45;;;5.80;99.90;;;;;;4980022;28;20238;-86
2022/01/17 05:43:31;;;;;;;13.80;8.43;;;5.50;99.90;;;;;;4980962;28;20680;-87
2022/01/17 05:45:58;;;;;;;14.00;7.60;;;5.70;99.90;;;;;;4980801;28;20207;-86
2022/01/17 05:48:25;;;;;;;12.63;7.82;;;5.90;99.90;;;;;;4988006;28;20274;-85
2022/01/17 05:50:52;;;;;;;14.57;9.73;;;5.90;99.90;;;;;;4995081;28;20226;-87
2022/01/17 05:53:19;;;;;;;12.75;8.55;;;5.90;99.90;;;;;;4986376;28;20222;-86
2022/01/17 05:55:45;;;;;;;15.10;9.75;;;5.70;99.90;;;;;;4983499;28;20239;-86
2022/01/17 05:58:14;;;;;;;13.90;9.18;;;5.60;99.90;;;;;;4981866;28;20242;-86
2022/01/17 06:00:41;;;;;;;12.65;8.77;;;5.80;99.90;;;;;;4990090;28;20291;-85
2022/01/17 06:03:08;;;;;;;13.43;9.27;;;5.50;99.90;;;;;;4992300;28;20582;-87
2022/01/17 06:19:26;;;;;;;12.43;8.45;;;5.60;99.90;;;;;;5498639;23;20245;-85
2022/01/17 06:21:53;;;;;;;13.77;9.10;;;5.70;99.90;;;;;;4988365;28;20210;-87
2022/01/17 06:24:20;;;;;;;13.02;7.82;;;5.80;99.90;;;;;;4986988;28;20211;-87
2022/01/17 06:26:46;;;;;;;12.90;7.10;;;5.50;99.90;;;;;;4985795;28;20207;-86
2022/01/17 06:29:14;;;;;;;12.98;7.90;;;5.80;99.90;;;;;;4984003;28;20601;-85
2022/01/17 06:32:01;;;;;;;14.18;7.22;;;5.60;99.90;;;;;;4982500;28;20589;-86
2022/01/17 06:44:04;;;;;;;10.18;6.55;;;6.40;99.90;;;;;;5265662;23;20250;-83
2022/01/17 06:46:31;;;;;;;11.23;6.40;;;6.40;99.90;;;;;;4986496;28;20216;-87
2022/01/17 06:48:57;;;;;;;10.90;6.28;;;6.20;99.90;;;;;;4984746;28;20206;-87
2022/01/17 06:51:24;;;;;;;9.77;6.78;;;5.90;99.90;;;;;;4986711;28;20241;-87
2022/01/17 06:53:52;;;;;;;11.38;7.40;;;6.40;99.90;;;;;;4998002;28;20225;-87
2022/01/17 06:56:19;;;;;;;9.95;7.57;;;5.90;99.90;;;;;;4994639;28;20206;-87
2022/01/17 06:58:46;;;;;;;8.32;6.32;;;5.90;99.90;;;;;;4985714;28;20214;-86
2022/01/17 07:01:16;;;;;;;11.07;6.78;;;6.10;99.90;;;;;;4984468;28;20286;-87
2022/01/17 07:03:43;;;;;;;9.45;6.45;;;5.80;99.90;;;;;;4983330;28;20215;-87
2022/01/17 07:06:10;;;;;;;9.80;6.57;;;6.20;99.90;;;;;;4984577;28;20218;-87
2022/01/17 07:08:45;;;;;;;9.63;6.10;;;6.60;99.90;;;;;;4983276;28;20250;-86
2022/01/17 07:11:12;;;;;;;12.95;6.32;;;6.30;99.90;;;;;;4983020;28;20188;-87
2022/01/17 07:13:39;;;;;;;8.30;6.53;;;6.80;99.90;;;;;;4983337;28;20243;-86
2022/01/17 07:16:06;;;;;;;8.77;5.95;;;6.50;99.90;;;;;;4982796;28;20207;-85
2022/01/17 07:18:34;;;;;;;9.30;6.30;;;6.90;99.90;;;;;;4983599;28;20716;-86
2022/01/17 07:21:01;;;;;;;9.15;5.97;;;6.30;99.90;;;;;;4984365;28;20299;-87
2022/01/17 07:23:28;;;;;;;10.23;6.70;;;6.00;99.90;;;;;;4983636;28;20220;-87
2022/01/17 07:25:55;;;;;;;9.13;5.78;;;6.30;99.90;;;;;;4984415;28;20220;-87
2022/01/17 07:28:22;;;;;;;9.18;5.82;;;6.20;99.90;;;;;;4983384;28;20551;-87
2022/01/17 07:30:49;;;;;;;12.18;7.40;;;6.50;99.90;;;;;;4984347;28;20674;-87
2022/01/17 07:33:16;;;;;;;9.88;6.22;;;6.00;99.90;;;;;;4984513;28;20246;-87
2022/01/17 07:35:45;;;;;;;8.65;5.88;;;6.50;99.90;;;;;;4985262;28;20215;-87
2022/01/17 07:38:13;;;;;;;8.60;6.03;;;6.50;99.90;;;;;;4984314;28;20221;-86
2022/01/17 07:40:45;;;;;;;9.30;6.28;;;6.10;99.90;;;;;;5018025;23;20254;-86
2022/01/17 07:43:17;;;;;;;10.52;5.22;;;6.40;99.90;;;;;;5003814;28;20226;-85
2022/01/17 07:46:02;;;;;;;9.10;5.95;;;6.40;99.90;;;;;;5002753;28;20275;-86
2022/01/17 07:48:57;;;;;;;8.18;6.05;;;6.40;99.90;;;;;;5002121;28;20200;-85
2022/01/17 07:51:27;;;;;;;8.18;5.43;;;6.60;99.90;;;;;;5001202;28;20305;-85
2022/01/17 07:53:56;;;;;;;9.27;6.32;;;6.70;99.90;;;;;;5001032;28;20260;-85
2022/01/17 07:56:23;;;;;;;9.38;5.95;;;6.20;99.90;;;;;;5001321;28;20214;-85
2022/01/17 07:58:52;;;;;;;9.88;6.22;;;6.70;99.90;;;;;;5005605;28;20234;-84
2022/01/17 08:01:38;;;;;;;9.43;5.00;;;6.60;99.90;;;;;;5002325;28;20262;-85
2022/01/17 08:11:09;;;;;;;8.40;5.50;;;6.50;99.90;;;;;;4994069;28;20231;-85
2022/01/17 08:13:42;;;;;;;9.55;5.90;;;6.70;99.90;;;;;;5001358;28;20314;-85
2022/01/17 08:16:23;;;;;;;11.10;5.68;;;6.70;99.90;;;;;;5005695;28;20219;-85
2022/01/17 08:19:06;;;;;;;8.23;5.45;;;6.50;99.90;;;;;;5005630;28;20577;-86
2022/01/17 08:21:36;;;;;;;8.27;6.20;;;6.60;99.90;;;;;;5004705;28;20262;-85
2022/01/17 08:40:51;;;;;;;;;;;;;;;;;;;;;
2022/01/17 08:47:32;;;;;;;9.10;5.30;;;6.70;99.90;;;;;;4800634;29;20218;-86
2022/01/17 08:59:31;;;;;;;8.48;4.93;;;6.80;99.90;;;;;;4882213;29;20294;-86
2022/01/17 09:04:57;;;;;;;12.13;5.40;;;6.90;99.90;;;;;;4998169;28;20615;-86
2022/01/17 09:11:14;;;;;;;8.50;5.05;;;7.20;99.90;;;;;;4954477;23;20243;-86
2022/01/17 09:16:34;;;;;;;8.65;5.10;;;7.00;99.90;;;;;;4937196;29;20744;-85
2022/01/17 09:19:02;;;;;;;9.45;5.45;;;7.00;99.90;;;;;;4970627;28;20281;-86
2022/01/17 09:21:54;;;;;;;7.22;4.65;;;7.20;99.90;;;;;;4980653;28;20236;-86
2022/01/17 09:25:11;;;;;;;;;;;;;;;;;;;;;
2022/01/17 09:34:59;;;;;;;7.35;4.85;;;7.30;99.90;;;;;;5013144;23;20266;-86
2022/01/17 09:40:33;;;;;;;6.38;4.00;;;7.50;99.90;;;;;;4911588;29;20270;-85
2022/01/17 09:45:53;;;;;;;6.28;3.63;;;7.60;99.90;;;;;;4866319;29;20188;-84
2022/01/17 09:48:37;;;;;;;10.05;3.67;;;7.60;99.90;;;;;;4971620;28;20222;-85
2022/01/17 09:51:33;;;;;;;6.53;3.80;;;7.80;99.90;;;;;;4978708;28;20287;-84
2022/01/17 09:54:09;;;;;;;5.85;3.65;;;7.70;99.90;;;;;;4979187;28;20266;-85
2022/01/17 09:56:43;;;;;;;5.50;3.15;;;7.70;99.90;;;;;;4979189;28;20318;-84
2022/01/17 09:59:12;;;;;;;7.07;3.35;;;7.70;99.90;;;;;;4980100;28;20225;-84
2022/01/17 10:36:22;;;;;;;4.63;2.60;;;8.40;99.90;;;;;;4945524;29;20189;-85
2022/01/17 10:39:11;;;;;;;4.47;2.30;;;8.40;99.90;;;;;;4945446;29;20206;-84
2022/01/17 10:44:36;;;;;;;3.90;2.10;;;8.50;99.90;;;;;;4943479;29;20551;-85
2022/01/17 10:47:35;;;;;;;3.65;1.92;;;8.60;99.90;;;;;;4941259;29;20193;-84
2022/01/17 10:50:10;;;;;;;4.07;1.80;;;8.40;99.90;;;;;;4941943;29;20226;-84
2022/01/17 10:52:41;;;;;;;5.70;2.00;;;8.50;99.90;;;;;;4951462;29;20217;-84
2022/01/17 10:55:27;;;;;;;3.50;1.70;;;8.60;99.90;;;;;;4943897;29;20261;-85
2022/01/17 10:57:56;;;;;;;4.15;1.88;;;8.60;99.90;;;;;;4940507;29;20232;-85
2022/01/17 11:00:25;;;;;;;4.43;2.00;;;8.70;99.90;;;;;;4943586;29;20233;-84
2022/01/17 11:02:55;;;;;;;3.88;2.08;;;8.80;99.90;;;;;;4941045;29;20210;-85
2022/01/17 11:05:23;;;;;;;3.85;1.83;;;8.70;99.90;;;;;;4940978;29;20239;-84
2022/01/17 11:07:55;;;;;;;4.45;2.60;;;8.40;99.90;;;;;;4940952;29;20224;-84
2022/01/17 11:10:25;;;;;;;5.63;3.25;;;8.30;99.90;;;;;;4940991;29;20524;-84
2022/01/17 11:12:54;;;;;;;7.50;4.22;;;7.60;99.90;;;;;;4942647;29;20205;-85
2022/01/17 11:15:22;;;;;;;5.75;3.60;;;7.90;99.90;;;;;;4941073;29;20220;-84
2022/01/17 11:17:52;;;;;;;5.88;3.33;;;7.60;99.90;;;;;;4942650;29;20233;-85
2022/01/17 11:20:21;;;;;;;7.03;4.30;;;7.80;99.90;;;;;;4943560;29;20280;-84
2022/01/17 11:22:50;;;;;;;9.13;3.50;;;7.70;99.90;;;;;;4942916;29;20214;-84
2022/01/17 11:25:19;;;;;;;6.10;3.10;;;7.70;99.90;;;;;;4944525;29;20266;-84
2022/01/17 11:27:50;;;;;;;3.95;2.03;;;7.90;99.90;;;;;;4948862;29;20303;-85
2022/01/17 11:30:18;;;;;;;9.07;4.30;;;8.00;99.90;;;;;;4943079;29;20201;-85
2022/01/17 11:32:47;;;;;;;2.70;1.00;;;8.20;99.90;;;;;;4941463;29;20268;-85
2022/01/17 11:35:16;;;;;;;4.80;2.33;;;8.30;99.90;;;;;;4940685;29;20277;-85
2022/01/17 11:37:46;;;;;;;6.15;3.38;;;8.40;99.90;;;;;;4944695;29;20237;-85
2022/01/17 11:40:15;;;;;;;9.30;5.00;;;8.40;99.90;;;;;;4944972;29;20336;-84
2022/01/17 11:42:44;;;;;;;9.38;5.50;;;8.00;99.90;;;;;;4947052;29;20279;-85
2022/01/17 11:45:39;;;;;;;8.35;4.95;;;7.40;99.90;;;;;;4946312;29;20236;-84
2022/01/17 11:48:08;;;;;;;6.88;5.05;;;7.50;99.90;;;;;;4946604;29;20217;-85
2022/01/17 11:55:54;;;;;;;8.45;5.63;;;7.30;99.90;;;;;;1003082;26;20711;-86
2022/01/17 11:58:29;;;;;;;6.70;4.78;;;7.40;99.90;;;;;;5001149;28;20242;-85
2022/01/17 12:02:10;;;;;;;8.63;4.43;;;7.60;99.90;;;;;;5011585;28;20262;-86
2022/01/17 12:42:11;;;;;;;4.25;2.58;;;8.30;99.90;;;;;;4796696;29;20319;-85
2022/01/17 12:45:36;;;;;;;9.38;2.90;;;8.20;99.90;;;;;;4937727;29;20237;-86
2022/01/17 12:48:33;;;;;;;5.05;3.00;;;8.20;99.90;;;;;;4940176;29;20213;-86
2022/01/17 12:51:35;;;;;;;5.70;3.38;;;8.10;99.90;;;;;;4937259;29;20310;-85
2022/01/17 13:05:15;;;;;;;7.05;3.80;;;8.40;99.90;;;;;;4806875;29;20205;-87
2022/01/17 13:21:49;;;;;;;;;;;;;;;;;;;;;
2022/01/17 13:28:08;;;;;;;5.05;2.97;;;8.30;99.90;;;;;;4903775;29;20564;-87
2022/01/17 13:43:15;;;;;;;5.45;3.50;;;8.20;99.90;;;;;;4901587;23;20315;-85
2022/01/17 13:45:45;;;;;;;5.30;3.00;;;8.30;99.90;;;;;;4986220;28;20552;-89
2022/01/17 13:48:15;;;;;;;6.13;3.50;;;8.30;99.90;;;;;;4983054;28;20222;-87
2022/01/17 13:50:48;;;;;;;6.38;3.10;;;8.20;99.90;;;;;;4988580;28;20239;-87
2022/01/17 13:53:18;;;;;;;10.13;3.40;;;8.40;99.90;;;;;;4996542;28;20292;-87
2022/01/17 13:55:47;;;;;;;5.03;2.72;;;8.20;99.90;;;;;;4996902;28;20199;-87
2022/01/17 13:58:16;;;;;;;5.15;2.78;;;8.30;99.90;;;;;;4993648;28;20216;-86
2022/01/17 14:00:46;;;;;;;5.32;3.08;;;8.40;99.90;;;;;;4993723;28;20207;-87
2022/01/17 14:03:14;;;;;;;5.65;2.40;;;8.40;99.90;;;;;;4993712;28;20239;-86
2022/01/17 14:05:44;;;;;;;5.95;3.00;;;8.40;99.90;;;;;;4988942;28;20215;-88
2022/01/17 14:08:17;;;;;;;6.15;3.28;;;8.40;99.90;;;;;;4987990;28;20230;-88
2022/01/17 14:10:50;;;;;;;7.88;3.05;;;8.40;99.90;;;;;;4987194;28;20205;-87
2022/01/17 14:13:26;;;;;;;5.70;2.03;;;8.60;99.90;;;;;;4986131;28;20243;-87
2022/01/17 14:15:54;;;;;;;4.45;2.63;;;8.70;99.90;;;;;;4986919;28;20212;-87
2022/01/17 14:18:25;;;;;;;4.07;2.60;;;8.40;99.90;;;;;;4984882;28;20203;-87
2022/01/17 14:20:55;;;;;;;6.60;2.30;;;8.60;99.90;;;;;;4987073;28;20237;-86
2022/01/17 14:23:42;;;;;;;4.55;2.50;;;8.50;99.90;;;;;;4989462;28;20307;-86
2022/01/17 14:26:09;;;;;;;6.20;2.75;;;8.50;99.90;;;;;;4990000;28;20220;-88
2022/01/17 14:28:36;;;;;;;5.18;2.22;;;8.40;99.90;;;;;;4990278;28;20559;-87
2022/01/17 14:31:14;;;;;;;5.95;2.70;;;8.50;99.90;;;;;;4989317;28;20215;-88
2022/01/17 14:33:45;;;;;;;3.75;2.15;;;8.50;99.90;;;;;;4988461;28;20322;-88
2022/01/17 14:36:14;;;;;;;4.53;2.40;;;8.40;99.90;;;;;;4991278;28;20208;-88
2022/01/17 14:38:48;;;;;;;5.47;3.00;;;8.40;99.90;;;;;;4999916;28;20204;-88
2022/01/17 14:41:20;;;;;;;5.50;2.78;;;8.30;99.90;;;;;;4988212;28;20255;-87
2022/01/17 14:43:49;;;;;;;5.55;2.30;;;8.30;99.90;;;;;;4996156;28;20306;-86
2022/01/17 14:46:16;;;;;;;6.53;3.00;;;8.30;99.90;;;;;;5000570;28;20278;-86
2022/01/17 14:48:44;;;;;;;4.00;2.25;;;8.20;99.90;;;;;;5000527;28;20207;-86
2022/01/17 14:51:20;;;;;;;6.30;2.33;;;8.30;99.90;;;;;;4999871;28;20211;-89
2022/01/17 14:53:51;;;;;;;4.00;2.30;;;8.40;99.90;;;;;;4995480;28;20255;-89
2022/01/17 14:59:33;;;;;;;4.60;2.30;;;8.50;99.90;;;;;;4996352;28;20272;-88
2022/01/17 15:02:07;;;;;;;4.43;2.75;;;8.50;99.90;;;;;;4994396;28;20251;-86
2022/01/17 15:04:38;;;;;;;4.18;2.03;;;8.30;99.90;;;;;;4999215;28;20243;-88
2022/01/17 15:07:05;;;;;;;11.93;2.95;;;8.30;99.90;;;;;;4989499;28;20200;-87
2022/01/17 15:09:33;;;;;;;5.80;2.42;;;8.40;99.90;;;;;;4986083;28;20208;-86
2022/01/17 15:12:00;;;;;;;5.05;3.10;;;8.40;99.90;;;;;;4986153;28;20695;-87
2022/01/17 15:14:28;;;;;;;6.53;3.00;;;8.40;99.90;;;;;;4986074;28;20232;-88
2022/01/17 15:16:57;;;;;;;6.05;3.17;;;8.30;99.90;;;;;;4987070;28;20251;-88
2022/01/17 15:19:27;;;;;;;6.18;3.03;;;8.20;99.90;;;;;;4986894;28;20204;-88
2022/01/17 15:21:54;;;;;;;4.82;3.08;;;8.20;99.90;;;;;;4986520;28;20239;-87
2022/01/17 15:24:22;;;;;;;5.68;3.60;;;8.20;99.90;;;;;;4986516;28;20733;-88
2022/01/17 15:26:50;;;;;;;5.95;3.75;;;8.30;99.90;;;;;;4985608;28;20212;-87
2022/01/17 15:29:24;;;;;;;5.25;3.35;;;8.20;99.90;;;;;;4986385;28;20284;-87
2022/01/17 15:31:52;;;;;;;4.90;2.90;;;8.00;99.90;;;;;;4996458;28;20207;-87
2022/01/17 15:34:20;;;;;;;6.47;3.80;;;7.60;99.90;;;;;;4998303;28;20216;-88
2022/01/17 15:36:47;;;;;;;5.45;3.60;;;7.90;99.90;;;;;;4997656;28;20222;-87
2022/01/17 15:39:20;;;;;;;5.78;3.75;;;8.00;99.90;;;;;;4990803;28;20208;-88
2022/01/17 15:41:47;;;;;;;7.47;4.90;;;8.00;99.90;;;;;;4986998;28;20220;-87
2022/01/17 15:44:15;;;;;;;7.60;4.18;;;7.80;99.90;;;;;;4986337;28;20265;-88
2022/01/17 15:46:43;;;;;;;10.75;4.38;;;7.90;99.90;;;;;;4988757;28;20311;-86
2022/01/17 15:49:11;;;;;;;5.40;3.45;;;8.00;99.90;;;;;;4988908;28;20238;-88
2022/01/17 15:51:38;;;;;;;6.05;3.67;;;8.00;99.90;;;;;;4988989;28;20235;-86
2022/01/17 15:54:06;;;;;;;5.55;3.90;;;8.00;99.90;;;;;;4985431;28;20282;-87
2022/01/17 15:56:35;;;;;;;7.65;4.25;;;7.70;99.90;;;;;;4985325;28;20201;-88
2022/01/17 15:59:03;;;;;;;7.82;4.70;;;7.40;99.90;;;;;;4987091;28;20212;-87
2022/01/17 16:01:31;;;;;;;7.20;5.15;;;7.30;99.90;;;;;;4991572;28;20235;-87
2022/01/17 16:03:59;;;;;;;6.22;4.28;;;7.60;99.90;;;;;;4986438;28;20574;-86
2022/01/17 16:06:28;;;;;;;7.35;4.93;;;7.70;99.90;;;;;;4986000;28;20214;-86
2022/01/17 16:08:56;;;;;;;9.32;5.88;;;7.60;99.90;;;;;;4988255;28;20215;-87
2022/01/17 16:11:25;;;;;;;14.38;5.38;;;7.70;99.90;;;;;;4986187;28;20213;-88
2022/01/17 16:13:53;;;;;;;9.40;4.90;;;7.80;99.90;;;;;;4986416;28;20325;-87
2022/01/17 16:16:20;;;;;;;6.85;4.50;;;7.40;99.90;;;;;;4987542;28;20246;-89
2022/01/17 16:18:58;;;;;;;6.60;4.28;;;7.70;99.90;;;;;;4988208;28;20251;-89
2022/01/17 16:21:34;;;;;;;11.73;5.45;;;7.70;99.90;;;;;;4986296;28;20201;-88
2022/01/17 16:24:01;;;;;;;10.13;5.55;;;7.60;99.90;;;;;;4986592;28;20592;-89
2022/01/17 16:26:28;;;;;;;7.88;5.20;;;7.70;99.90;;;;;;4984912;28;20215;-89
2022/01/17 16:28:55;;;;;;;7.72;4.40;;;7.60;99.90;;;;;;4988618;28;20239;-89
2022/01/17 16:31:23;;;;;;;9.05;5.55;;;7.70;99.90;;;;;;4986033;28;20238;-87
2022/01/17 16:33:51;;;;;;;9.82;5.68;;;7.70;99.90;;;;;;4994463;28;20223;-87
2022/01/17 16:36:20;;;;;;;7.47;5.55;;;7.70;99.90;;;;;;4988677;28;20239;-87
2022/01/17 16:38:48;;;;;;;9.80;6.15;;;7.60;99.90;;;;;;4984004;28;20304;-87
2022/01/17 16:41:16;;;;;;;8.73;5.63;;;7.20;99.90;;;;;;4983866;28;20220;-86
2022/01/17 16:43:49;;;;;;;7.32;5.40;;;7.40;99.90;;;;;;4985734;28;20775;-86
2022/01/17 16:46:16;;;;;;;7.47;4.72;;;7.70;99.90;;;;;;4984759;28;20228;-88
2022/01/17 16:48:44;;;;;;;8.32;6.03;;;7.80;99.90;;;;;;4983243;28;20212;-86
2022/01/17 16:51:12;;;;;;;8.25;5.45;;;7.80;99.90;;;;;;4984708;28;20302;-88
2022/01/17 16:53:41;;;;;;;8.48;5.65;;;7.80;99.90;;;;;;4984470;28;20296;-86
2022/01/17 16:56:08;;;;;;;7.30;5.15;;;7.90;99.90;;;;;;4986042;28;20207;-85
2022/01/17 16:58:35;;;;;;;10.98;6.28;;;7.80;99.90;;;;;;4987338;28;20195;-86
2022/01/17 17:01:04;;;;;;;11.95;7.20;;;7.60;99.90;;;;;;4991326;28;20221;-88
2022/01/17 17:03:31;;;;;;;12.35;6.50;;;7.70;99.90;;;;;;4994911;28;20260;-87
2022/01/17 17:05:58;;;;;;;9.40;6.43;;;7.80;99.90;;;;;;4998135;28;20199;-86
2022/01/17 17:08:27;;;;;;;8.70;5.82;;;7.80;99.90;;;;;;4995120;28;20196;-87
2022/01/17 17:10:54;;;;;;;9.93;7.03;;;7.80;99.90;;;;;;4993449;28;20212;-86
2022/01/17 17:13:21;;;;;;;9.30;5.88;;;7.70;99.90;;;;;;4996851;28;20247;-86
2022/01/17 17:15:48;;;;;;;10.85;6.57;;;7.50;99.90;;;;;;4986756;28;20218;-87
2022/01/17 17:18:15;;;;;;;11.88;7.20;;;7.20;99.90;;;;;;4985221;28;20562;-87
2022/01/17 17:20:45;;;;;;;11.20;7.32;;;7.40;99.90;;;;;;4985035;28;20297;-87
2022/01/17 17:23:12;;;;;;;12.68;6.30;;;7.20;99.90;;;;;;4984116;28;20247;-85
2022/01/17 17:25:40;;;;;;;14.77;7.50;;;7.30;99.90;;;;;;4984662;28;20217;-84
2022/01/17 17:28:07;;;;;;;9.70;6.65;;;7.20;99.90;;;;;;4982435;28;20637;-84
2022/01/17 17:30:35;;;;;;;12.15;7.65;;;7.60;99.90;;;;;;4982576;28;20294;-83
2022/01/17 17:33:02;;;;;;;10.48;6.20;;;7.60;99.90;;;;;;4983592;28;20287;-86
2022/01/17 17:35:31;;;;;;;10.88;7.70;;;7.80;99.90;;;;;;4983703;28;20298;-86
2022/01/17 17:37:58;;;;;;;10.60;6.82;;;7.70;99.90;;;;;;4986627;28;20267;-85
2022/01/17 17:40:25;;;;;;;12.60;8.68;;;6.90;99.90;;;;;;4981915;28;20212;-85
2022/01/17 17:42:54;;;;;;;13.27;7.55;;;7.30;99.90;;;;;;4982032;28;20720;-84
2022/01/17 17:45:21;;;;;;;11.40;7.35;;;6.80;99.90;;;;;;4983014;28;20215;-87
2022/01/17 17:47:48;;;;;;;12.50;7.78;;;7.10;99.90;;;;;;4984283;28;20239;-86
2022/01/17 17:50:16;;;;;;;12.38;7.20;;;7.40;99.90;;;;;;4983887;28;20324;-86
2022/01/17 17:52:45;;;;;;;14.93;8.10;;;7.20;99.90;;;;;;4986942;28;20227;-87
2022/01/17 17:55:13;;;;;;;13.02;8.57;;;7.00;99.90;;;;;;4993648;28;20223;-87
2022/01/17 17:57:44;;;;;;;12.07;8.00;;;7.10;99.90;;;;;;4994522;28;20230;-87
2022/01/17 18:00:15;;;;;;;11.45;7.82;;;7.20;99.90;;;;;;4987235;28;20196;-86
2022/01/17 18:02:42;;;;;;;13.85;8.90;;;7.10;99.90;;;;;;4986915;28;20748;-87
2022/01/17 18:05:11;;;;;;;15.00;8.82;;;7.10;99.90;;;;;;4987298;28;20208;-86
2022/01/17 18:07:40;;;;;;;13.20;9.45;;;7.10;99.90;;;;;;4992138;28;20239;-87
2022/01/17 18:10:08;;;;;;;11.68;8.52;;;6.60;99.90;;;;;;4998223;28;20208;-87
2022/01/17 18:12:35;;;;;;;12.32;7.90;;;6.90;99.90;;;;;;4989146;28;20208;-88
2022/01/17 18:15:04;;;;;;;13.60;8.50;;;7.00;99.90;;;;;;4989283;28;20242;-88